createdAt,value
2023-03-29T00:02:18.864Z,19.07
2023-03-29T00:04:49.898Z,19.07
2023-03-29T00:07:23.480Z,19.06
2023-03-29T00:09:51.677Z,19.06
2023-03-29T00:12:25.313Z,19.06
2023-03-29T00:14:53.387Z,19.04
2023-03-29T00:17:21.006Z,19.04
2023-03-29T00:19:54.503Z,19.03
2023-03-29T00:22:22.437Z,19.03
2023-03-29T00:24:56.714Z,19.03
2023-03-29T00:27:24.079Z,19.00
2023-03-29T00:29:54.093Z,19.01
2023-03-29T00:32:24.782Z,19.02
2023-03-29T00:34:55.512Z,19.00
2023-03-29T00:37:23.384Z,19.00
2023-03-29T00:39:54.532Z,18.99
2023-03-29T00:42:21.877Z,18.99
2023-03-29T00:45:03.673Z,18.98
2023-03-29T00:47:55.008Z,18.97
2023-03-29T00:50:27.246Z,18.96
2023-03-29T00:53:08.172Z,18.97
2023-03-29T00:56:08.051Z,18.95
2023-03-29T00:59:22.056Z,18.95
2023-03-29T01:01:52.282Z,18.94
2023-03-29T01:04:38.775Z,18.94
2023-03-29T01:07:30.097Z,18.92
2023-03-29T01:10:09.400Z,18.89
2023-03-29T01:12:44.827Z,18.89
2023-03-29T01:15:15.919Z,18.89
2023-03-29T01:17:47.867Z,18.87
2023-03-29T01:20:46.555Z,18.87
2023-03-29T01:23:38.746Z,18.86
2023-03-29T01:26:19.667Z,18.85
2023-03-29T01:29:04.562Z,18.86
2023-03-29T01:31:47.745Z,18.84
2023-03-29T01:34:48.974Z,18.84
2023-03-29T01:37:32.264Z,18.83
2023-03-29T01:40:00.970Z,18.82
2023-03-29T01:42:51.152Z,18.83
2023-03-29T01:45:28.476Z,18.81
2023-03-29T01:48:04.635Z,18.81
2023-03-29T01:51:21.367Z,18.81
2023-03-29T01:54:20.039Z,18.79
2023-03-29T01:56:52.535Z,18.80
2023-03-29T01:59:31.918Z,18.78
2023-03-29T02:02:06.692Z,18.78
2023-03-29T02:04:40.381Z,18.78
2023-03-29T02:07:23.222Z,18.77
2023-03-29T02:09:52.749Z,18.77
2023-03-29T02:12:21.785Z,18.76
2023-03-29T02:14:53.308Z,18.75
2023-03-29T02:17:31.519Z,18.74
2023-03-29T02:20:30.219Z,18.74
2023-03-29T02:23:09.919Z,18.75
2023-03-29T02:25:42.094Z,18.73
2023-03-29T02:28:13.241Z,18.73
2023-03-29T02:31:19.856Z,18.72
2023-03-29T02:34:03.004Z,18.72
2023-03-29T02:36:50.470Z,18.71
2023-03-29T02:39:33.060Z,18.71
2023-03-29T02:42:04.403Z,18.70
2023-03-29T02:44:36.792Z,18.69
2023-03-29T02:47:20.206Z,18.68
2023-03-29T02:49:47.549Z,18.68
2023-03-29T02:52:29.836Z,18.70
2023-03-29T02:54:59.263Z,18.67
2023-03-29T02:57:32.260Z,18.65
2023-03-29T03:00:06.135Z,18.65
2023-03-29T03:02:37.452Z,18.64
2023-03-29T03:05:09.479Z,18.64
2023-03-29T03:07:39.839Z,18.62
2023-03-29T03:10:17.358Z,18.62
2023-03-29T03:12:45.249Z,18.60
2023-03-29T03:15:12.917Z,18.61
2023-03-29T03:17:40.528Z,18.60
2023-03-29T03:20:17.861Z,18.60
2023-03-29T03:22:47.186Z,18.58
2023-03-29T03:25:18.545Z,18.59
2023-03-29T03:27:51.407Z,18.57
2023-03-29T03:30:22.222Z,18.57
2023-03-29T03:32:50.004Z,18.57
2023-03-29T03:35:25.831Z,18.56
2023-03-29T03:37:56.765Z,18.56
2023-03-29T03:40:31.149Z,18.56
2023-03-29T03:43:01.696Z,18.55
2023-03-29T03:45:37.125Z,18.54
2023-03-29T03:48:08.770Z,18.54
2023-03-29T03:50:36.838Z,18.52
2023-03-29T03:53:04.991Z,18.53
2023-03-29T03:55:36.738Z,18.51
2023-03-29T03:58:04.430Z,18.52
2023-03-29T04:00:38.934Z,18.52
2023-03-29T04:03:12.131Z,18.50
2023-03-29T04:05:44.150Z,18.50
2023-03-29T04:08:17.826Z,18.49
2023-03-29T04:10:56.782Z,18.47
2023-03-29T04:13:31.564Z,18.48
2023-03-29T04:16:08.770Z,18.46
2023-03-29T04:18:45.211Z,18.46
2023-03-29T04:21:21.104Z,18.45
2023-03-29T04:23:53.077Z,18.45
2023-03-29T04:26:26.532Z,18.45
2023-03-29T04:29:04.042Z,18.45
2023-03-29T04:31:37.350Z,18.44
2023-03-29T04:34:08.894Z,18.44
2023-03-29T04:36:41.879Z,18.43
2023-03-29T04:39:15.770Z,18.42
2023-03-29T04:41:43.393Z,18.42
2023-03-29T04:44:12.312Z,18.41
2023-03-29T04:46:42.860Z,18.40
2023-03-29T04:49:13.194Z,18.40
2023-03-29T04:51:44.006Z,18.40
2023-03-29T04:54:19.580Z,18.40
2023-03-29T04:56:50.554Z,18.38
2023-03-29T04:59:24.331Z,18.39
2023-03-29T05:01:53.034Z,18.38
2023-03-29T05:04:26.621Z,18.37
2023-03-29T05:07:00.984Z,18.35
2023-03-29T05:09:41.587Z,18.35
2023-03-29T05:12:19.149Z,18.34
2023-03-29T05:14:50.426Z,18.33
2023-03-29T05:17:22.412Z,18.34
2023-03-29T05:19:56.137Z,18.33
2023-03-29T05:22:26.819Z,18.32
2023-03-29T05:25:02.060Z,18.32
2023-03-29T05:27:33.825Z,18.32
2023-03-29T05:30:05.618Z,18.32
2023-03-29T05:32:42.106Z,18.32
2023-03-29T05:35:17.014Z,18.33
2023-03-29T05:37:47.648Z,18.33
2023-03-29T05:40:18.948Z,18.34
2023-03-29T05:42:49.085Z,18.32
2023-03-29T05:45:24.044Z,18.33
2023-03-29T05:48:01.135Z,18.33
2023-03-29T05:50:34.922Z,18.32
2023-03-29T05:53:10.008Z,18.34
2023-03-29T05:55:43.638Z,18.36
2023-03-29T05:58:17.976Z,18.36
2023-03-29T06:00:48.840Z,18.37
2023-03-29T06:03:27.806Z,18.40
2023-03-29T06:06:03.483Z,18.42
2023-03-29T06:08:38.204Z,18.45
2023-03-29T06:11:13.677Z,18.48
2023-03-29T06:13:48.998Z,18.51
2023-03-29T06:16:17.643Z,18.55
2023-03-29T06:18:45.256Z,18.61
2023-03-29T06:21:15.920Z,18.67
2023-03-29T06:23:46.280Z,18.71
2023-03-29T06:26:19.954Z,18.76
2023-03-29T06:29:01.874Z,18.83
2023-03-29T06:31:35.183Z,18.90
2023-03-29T06:34:14.191Z,18.98
2023-03-29T06:36:52.025Z,19.03
2023-03-29T06:39:26.791Z,19.06
2023-03-29T06:41:57.926Z,19.12
2023-03-29T06:44:26.555Z,19.16
2023-03-29T06:47:04.898Z,19.22
2023-03-29T06:49:38.377Z,19.27
2023-03-29T06:52:11.403Z,19.32
2023-03-29T06:54:45.674Z,19.38
2023-03-29T06:57:19.955Z,19.42
2023-03-29T06:59:49.697Z,19.44
2023-03-29T07:02:24.592Z,19.47
2023-03-29T07:05:03.470Z,19.49
2023-03-29T07:07:38.831Z,19.53
2023-03-29T07:10:15.684Z,19.55
2023-03-29T07:12:45.674Z,19.56
2023-03-29T07:15:14.547Z,19.59
2023-03-29T07:18:10.624Z,19.61
2023-03-29T07:21:07.514Z,19.64
2023-03-29T07:23:56.921Z,19.67
2023-03-29T07:26:28.706Z,19.70
2023-03-29T07:28:57.326Z,19.72
2023-03-29T07:31:27.316Z,19.74
2023-03-29T07:33:55.036Z,19.77
2023-03-29T07:36:25.932Z,19.81
2023-03-29T07:38:59.409Z,19.85
2023-03-29T07:41:27.508Z,19.88
2023-03-29T07:43:59.063Z,19.91
2023-03-29T07:46:29.809Z,19.94
2023-03-29T07:49:09.556Z,19.97
2023-03-29T07:51:41.567Z,19.99
2023-03-29T07:54:12.819Z,20.01
2023-03-29T07:56:44.878Z,20.03
2023-03-29T07:59:24.458Z,20.04
2023-03-29T08:02:13.271Z,20.06
2023-03-29T08:04:53.493Z,20.08
2023-03-29T08:07:48.640Z,20.09
2023-03-29T08:10:40.897Z,20.10
2023-03-29T08:13:30.174Z,20.11
2023-03-29T08:16:04.874Z,20.13
2023-03-29T08:19:00.672Z,20.14
2023-03-29T08:21:53.906Z,20.15
2023-03-29T08:24:24.329Z,20.15
2023-03-29T08:26:55.231Z,20.17
2023-03-29T08:29:27.424Z,20.18
2023-03-29T08:32:02.082Z,20.18
2023-03-29T08:35:00.585Z,20.18
2023-03-29T08:37:41.268Z,20.18
2023-03-29T08:40:22.383Z,20.20
2023-03-29T08:43:22.793Z,20.20
2023-03-29T08:46:03.204Z,20.19
2023-03-29T08:48:43.302Z,20.20
2023-03-29T08:51:30.605Z,20.22
2023-03-29T08:54:05.097Z,20.24
2023-03-29T08:56:40.578Z,20.28
2023-03-29T08:59:27.697Z,20.26
2023-03-29T09:02:11.077Z,20.28
2023-03-29T09:04:44.603Z,20.29
2023-03-29T09:07:15.668Z,20.33
2023-03-29T09:09:43.579Z,20.34
2023-03-29T09:12:50.138Z,20.36
2023-03-29T09:15:28.982Z,20.39
2023-03-29T09:18:35.021Z,20.41
2023-03-29T09:21:25.712Z,20.42
2023-03-29T09:24:00.212Z,20.43
2023-03-29T09:26:46.268Z,20.44
2023-03-29T09:29:35.181Z,20.43
2023-03-29T09:32:15.484Z,20.43
2023-03-29T09:35:12.194Z,20.43
2023-03-29T09:37:42.299Z,20.45
2023-03-29T09:40:42.597Z,20.45
2023-03-29T09:43:13.865Z,20.45
2023-03-29T09:45:50.943Z,20.45
2023-03-29T09:48:22.571Z,20.46
2023-03-29T09:50:51.672Z,20.47
2023-03-29T09:53:21.710Z,20.49
2023-03-29T09:55:50.650Z,20.47
2023-03-29T09:58:28.621Z,20.46
2023-03-29T10:01:03.269Z,20.45
2023-03-29T10:03:33.160Z,20.45
2023-03-29T10:06:04.408Z,20.46
2023-03-29T10:08:37.030Z,20.48
2023-03-29T10:11:13.791Z,20.52
2023-03-29T10:13:47.716Z,20.53
2023-03-29T10:16:25.436Z,20.55
2023-03-29T10:18:55.580Z,20.56
2023-03-29T10:21:35.601Z,20.60
2023-03-29T10:24:02.858Z,20.59
2023-03-29T10:26:33.222Z,20.58
2023-03-29T10:29:08.066Z,20.55
2023-03-29T10:31:35.253Z,20.54
2023-03-29T10:34:07.751Z,20.55
2023-03-29T10:36:35.579Z,20.52
2023-03-29T10:39:11.208Z,20.52
2023-03-29T10:41:45.115Z,20.51
2023-03-29T10:44:39.812Z,20.52
2023-03-29T10:47:15.180Z,20.49
2023-03-29T10:49:51.040Z,20.48
2023-03-29T10:52:22.026Z,20.45
2023-03-29T10:54:56.648Z,20.47
2023-03-29T10:57:46.814Z,20.46
2023-03-29T11:00:57.318Z,20.45
2023-03-29T11:04:04.990Z,20.46
2023-03-29T11:06:40.665Z,20.49
2023-03-29T11:09:41.423Z,20.51
2023-03-29T11:12:42.472Z,20.53
2023-03-29T11:15:15.138Z,20.52
2023-03-29T11:18:06.205Z,20.53
2023-03-29T11:21:10.111Z,20.53
2023-03-29T11:23:55.784Z,20.54
2023-03-29T11:26:34.291Z,20.50
2023-03-29T11:29:12.802Z,20.53
2023-03-29T11:32:09.862Z,20.54
2023-03-29T11:34:52.974Z,20.52
2023-03-29T11:37:49.767Z,20.50
2023-03-29T11:40:41.682Z,20.46
2023-03-29T11:43:31.130Z,20.46
2023-03-29T11:46:16.272Z,20.46
2023-03-29T11:49:27.195Z,20.45
2023-03-29T11:52:19.351Z,20.45
2023-03-29T11:54:54.031Z,20.44
2023-03-29T11:57:28.151Z,20.44
2023-03-29T12:00:28.159Z,20.43
2023-03-29T12:03:11.181Z,20.43
2023-03-29T12:05:56.105Z,20.40
2023-03-29T12:08:31.824Z,20.38
2023-03-29T12:11:12.753Z,20.37
2023-03-29T12:14:02.830Z,20.38
2023-03-29T12:16:50.206Z,20.43
2023-03-29T12:19:19.390Z,20.42
2023-03-29T12:21:48.704Z,20.41
2023-03-29T12:24:22.031Z,20.39
2023-03-29T12:27:19.582Z,20.37
2023-03-29T12:30:04.835Z,20.38
2023-03-29T12:32:58.184Z,20.39
2023-03-29T12:35:50.269Z,20.41
2023-03-29T12:38:33.743Z,20.41
2023-03-29T12:41:11.504Z,20.40
2023-03-29T12:43:42.699Z,20.41
2023-03-29T12:46:36.052Z,20.40
2023-03-29T12:49:19.880Z,20.41
2023-03-29T12:51:51.900Z,20.42
2023-03-29T12:54:32.283Z,20.44
2023-03-29T12:57:39.007Z,20.44
2023-03-29T13:00:23.507Z,20.46
2023-03-29T13:03:20.914Z,20.47
2023-03-29T13:06:01.497Z,20.51
2023-03-29T13:08:37.872Z,20.51
2023-03-29T13:11:06.644Z,20.53
2023-03-29T13:13:39.540Z,20.53
2023-03-29T13:16:14.944Z,20.52
2023-03-29T13:19:11.163Z,20.54
2023-03-29T13:22:02.973Z,20.54
2023-03-29T13:24:39.257Z,20.55
2023-03-29T13:27:11.845Z,20.55
2023-03-29T13:29:42.442Z,20.54
2023-03-29T13:32:18.812Z,20.55
2023-03-29T13:35:09.942Z,20.54
2023-03-29T13:37:59.263Z,20.55
2023-03-29T13:40:41.214Z,20.47
2023-03-29T13:43:19.912Z,20.52
2023-03-29T13:45:58.524Z,20.52
2023-03-29T13:48:30.970Z,20.51
2023-03-29T13:51:19.620Z,20.48
2023-03-29T13:53:53.512Z,20.45
2023-03-29T13:56:31.263Z,20.44
2023-03-29T13:59:07.113Z,20.42
2023-03-29T14:02:07.540Z,20.39
2023-03-29T14:04:46.355Z,20.44
2023-03-29T14:07:15.229Z,20.44
2023-03-29T14:09:49.916Z,20.46
2023-03-29T14:12:23.620Z,20.46
2023-03-29T14:14:58.953Z,20.47
2023-03-29T14:17:26.996Z,20.51
2023-03-29T14:19:58.553Z,20.52
2023-03-29T14:22:33.904Z,20.54
2023-03-29T14:25:29.798Z,20.55
2023-03-29T14:27:57.052Z,20.54
2023-03-29T14:30:34.754Z,20.57
2023-03-29T14:33:02.093Z,20.56
2023-03-29T14:35:32.427Z,20.58
2023-03-29T14:38:03.336Z,20.56
2023-03-29T14:40:34.000Z,20.58
2023-03-29T14:43:14.616Z,20.55
2023-03-29T14:45:41.968Z,20.53
2023-03-29T14:48:16.462Z,20.54
2023-03-29T14:50:46.382Z,20.54
2023-03-29T14:53:28.603Z,20.55
2023-03-29T14:55:59.031Z,20.55
2023-03-29T14:58:35.252Z,20.54
2023-03-29T15:01:18.492Z,20.53
2023-03-29T15:03:50.576Z,20.52
2023-03-29T15:06:21.475Z,20.54
2023-03-29T15:09:03.615Z,20.52
2023-03-29T15:11:35.705Z,20.51
2023-03-29T15:14:16.586Z,20.45
2023-03-29T15:16:50.938Z,20.43
2023-03-29T15:19:25.468Z,20.42
2023-03-29T15:21:55.781Z,20.38
2023-03-29T15:24:33.790Z,20.37
2023-03-29T15:27:11.261Z,20.37
2023-03-29T15:29:41.505Z,20.37
2023-03-29T15:32:34.972Z,20.38
2023-03-29T15:35:21.184Z,20.36
2023-03-29T15:37:56.561Z,20.38
2023-03-29T15:40:28.489Z,20.38
2023-03-29T15:42:55.657Z,20.37
2023-03-29T15:45:26.481Z,20.36
2023-03-29T15:47:56.345Z,20.36
2023-03-29T15:50:23.676Z,20.37
2023-03-29T15:52:56.345Z,20.38
2023-03-29T15:55:35.795Z,20.39
2023-03-29T15:58:03.372Z,20.40
2023-03-29T16:00:40.265Z,20.41
2023-03-29T16:03:16.599Z,20.41
2023-03-29T16:05:45.305Z,20.43
2023-03-29T16:08:13.364Z,20.45
2023-03-29T16:10:48.736Z,20.46
2023-03-29T16:13:22.376Z,20.47
2023-03-29T16:15:53.249Z,20.49
2023-03-29T16:18:26.066Z,20.51
2023-03-29T16:21:02.298Z,20.48
2023-03-29T16:23:34.566Z,20.51
2023-03-29T16:26:01.989Z,20.52
2023-03-29T16:28:32.451Z,20.50
2023-03-29T16:31:05.474Z,20.46
2023-03-29T16:33:35.894Z,20.47
2023-03-29T16:36:11.213Z,20.51
2023-03-29T16:38:47.200Z,20.45
2023-03-29T16:41:24.817Z,20.46
2023-03-29T16:44:02.226Z,20.46
2023-03-29T16:46:34.412Z,20.48
2023-03-29T16:49:08.029Z,20.45
2023-03-29T16:51:36.111Z,20.46
2023-03-29T16:54:08.677Z,20.45
2023-03-29T16:56:42.334Z,20.44
2023-03-29T16:59:21.809Z,20.45
2023-03-29T17:01:51.293Z,20.47
2023-03-29T17:04:22.475Z,20.44
2023-03-29T17:06:52.180Z,20.44
2023-03-29T17:09:28.382Z,20.42
2023-03-29T17:11:59.016Z,20.42
2023-03-29T17:14:32.376Z,20.42
2023-03-29T17:17:01.227Z,20.42
2023-03-29T17:19:37.828Z,20.41
2023-03-29T17:22:09.894Z,20.42
2023-03-29T17:24:43.041Z,20.42
2023-03-29T17:27:17.240Z,20.43
2023-03-29T17:29:48.638Z,20.41
2023-03-29T17:32:19.422Z,20.42
2023-03-29T17:34:55.999Z,20.42
2023-03-29T17:37:24.252Z,20.45
2023-03-29T17:39:56.062Z,20.46
2023-03-29T17:42:26.677Z,20.45
2023-03-29T17:44:57.670Z,20.46
2023-03-29T17:47:29.188Z,20.46
2023-03-29T17:50:03.306Z,20.46
2023-03-29T17:52:33.724Z,20.49
2023-03-29T17:55:01.441Z,20.53
2023-03-29T17:57:29.158Z,20.52
2023-03-29T17:59:56.592Z,20.46
2023-03-29T18:02:28.390Z,20.43
2023-03-29T18:05:01.766Z,20.44
2023-03-29T18:07:33.008Z,20.41
2023-03-29T18:10:06.326Z,20.40
2023-03-29T18:12:36.475Z,20.39
2023-03-29T18:15:10.492Z,20.39
2023-03-29T18:17:41.514Z,20.37
2023-03-29T18:20:13.793Z,20.33
2023-03-29T18:22:50.295Z,20.35
2023-03-29T18:25:22.955Z,20.36
2023-03-29T18:27:58.639Z,20.33
2023-03-29T18:30:26.776Z,20.33
2023-03-29T18:32:58.078Z,20.33
2023-03-29T18:35:25.933Z,20.32
2023-03-29T18:37:56.812Z,20.32
2023-03-29T18:40:25.210Z,20.28
2023-03-29T18:42:56.303Z,20.30
2023-03-29T18:45:30.389Z,20.27
2023-03-29T18:48:02.311Z,20.25
2023-03-29T18:50:37.187Z,20.27
2023-03-29T18:53:07.936Z,20.25
2023-03-29T18:55:38.812Z,20.24
2023-03-29T18:58:06.951Z,20.24
2023-03-29T19:00:37.190Z,20.22
2023-03-29T19:03:13.290Z,20.19
2023-03-29T19:05:45.171Z,20.20
2023-03-29T19:08:12.861Z,20.22
2023-03-29T19:10:46.858Z,20.23
2023-03-29T19:13:15.525Z,20.24
2023-03-29T19:15:45.686Z,20.28
2023-03-29T19:18:12.922Z,20.28
2023-03-29T19:20:41.070Z,20.33
2023-03-29T19:23:11.777Z,20.35
2023-03-29T19:25:42.065Z,20.38
2023-03-29T19:28:33.942Z,20.37
2023-03-29T19:31:11.373Z,20.40
2023-03-29T19:33:43.973Z,20.40
2023-03-29T19:36:11.915Z,20.39
2023-03-29T19:38:48.255Z,20.42
2023-03-29T19:41:18.081Z,20.40
2023-03-29T19:44:07.959Z,20.39
2023-03-29T19:46:38.755Z,20.38
2023-03-29T19:49:14.338Z,20.37
2023-03-29T19:52:00.050Z,20.35
2023-03-29T19:54:30.811Z,20.34
2023-03-29T19:57:01.560Z,20.34
2023-03-29T19:59:34.763Z,20.32
2023-03-29T20:02:04.945Z,20.31
2023-03-29T20:04:32.905Z,20.32
2023-03-29T20:07:06.992Z,20.31
2023-03-29T20:09:34.570Z,20.29
2023-03-29T20:12:05.686Z,20.28
2023-03-29T20:14:33.412Z,20.27
2023-03-29T20:17:06.858Z,20.26
2023-03-29T20:19:34.277Z,20.25
2023-03-29T20:22:01.522Z,20.24
2023-03-29T20:24:31.696Z,20.20
2023-03-29T20:27:02.133Z,20.20
2023-03-29T20:29:34.646Z,20.21
2023-03-29T20:32:08.806Z,20.20
2023-03-29T20:34:42.458Z,20.21
2023-03-29T20:37:13.503Z,20.20
2023-03-29T20:39:47.086Z,20.20
2023-03-29T20:42:19.162Z,20.19
2023-03-29T20:44:49.637Z,20.19
2023-03-29T20:47:18.538Z,20.17
2023-03-29T20:49:49.032Z,20.14
2023-03-29T20:52:23.033Z,20.14
2023-03-29T20:54:50.866Z,20.13
2023-03-29T20:57:25.605Z,20.14
2023-03-29T20:59:56.093Z,20.13
2023-03-29T21:02:26.391Z,20.11
2023-03-29T21:04:59.748Z,20.11
2023-03-29T21:07:30.321Z,20.10
2023-03-29T21:09:57.421Z,20.09
2023-03-29T21:12:24.469Z,20.08
2023-03-29T21:14:51.656Z,20.09
2023-03-29T21:17:18.747Z,20.08
2023-03-29T21:19:46.194Z,20.08
2023-03-29T21:22:13.877Z,20.08
2023-03-29T21:24:41.484Z,20.06
2023-03-29T21:27:09.099Z,20.06
2023-03-29T21:29:36.323Z,20.08
2023-03-29T21:32:06.983Z,20.07
2023-03-29T21:34:35.050Z,20.06
2023-03-29T21:37:02.479Z,20.06
2023-03-29T21:39:48.684Z,20.06
2023-03-29T21:42:19.992Z,20.05
2023-03-29T21:44:52.616Z,20.04
2023-03-29T21:47:20.412Z,20.03
2023-03-29T21:49:54.426Z,20.02
2023-03-29T21:52:21.995Z,20.00
2023-03-29T21:55:11.213Z,19.99
2023-03-29T21:57:50.133Z,19.96
2023-03-29T22:00:25.309Z,19.95
2023-03-29T22:02:59.525Z,19.95
2023-03-29T22:05:33.284Z,19.93
2023-03-29T22:08:00.789Z,19.92
2023-03-29T22:10:30.997Z,19.91
2023-03-29T22:13:01.369Z,19.89
2023-03-29T22:15:33.863Z,19.89
2023-03-29T22:18:04.891Z,19.87
2023-03-29T22:20:35.805Z,19.87
2023-03-29T22:23:03.517Z,19.85
2023-03-29T22:25:40.539Z,19.85
2023-03-29T22:28:11.460Z,19.84
2023-03-29T22:30:43.515Z,19.82
2023-03-29T22:33:17.280Z,19.81
2023-03-29T22:35:48.557Z,19.81
2023-03-29T22:38:30.207Z,19.80
2023-03-29T22:41:00.686Z,19.79
2023-03-29T22:43:33.884Z,19.78
2023-03-29T22:46:04.572Z,19.77
2023-03-29T22:48:37.476Z,19.77
2023-03-29T22:51:07.917Z,19.76
2023-03-29T22:53:38.290Z,19.77
2023-03-29T22:56:09.907Z,19.75
2023-03-29T22:58:38.839Z,19.75
2023-03-29T23:01:09.710Z,19.74
2023-03-29T23:03:43.528Z,19.73
2023-03-29T23:06:17.474Z,19.72
2023-03-29T23:08:48.159Z,19.72
2023-03-29T23:11:15.563Z,19.70
2023-03-29T23:13:45.460Z,19.70
2023-03-29T23:16:17.043Z,19.70
2023-03-29T23:18:53.050Z,19.68
2023-03-29T23:21:28.052Z,19.68
2023-03-29T23:23:58.510Z,19.68
2023-03-29T23:26:32.292Z,19.66
2023-03-29T23:29:05.403Z,19.68
2023-03-29T23:31:32.714Z,19.65
2023-03-29T23:34:00.775Z,19.66
2023-03-29T23:36:27.998Z,19.65
2023-03-29T23:38:55.277Z,19.62
2023-03-29T23:41:25.911Z,19.62
2023-03-29T23:43:56.941Z,19.60
2023-03-29T23:46:28.055Z,19.61
2023-03-29T23:48:58.901Z,19.60
2023-03-29T23:51:26.762Z,19.59
2023-03-29T23:53:57.595Z,19.60
2023-03-29T23:56:27.811Z,19.58
2023-03-29T23:58:55.629Z,19.58
